createdAt,value
2019-02-12T00:00:18.596Z,3.08
2019-02-12T00:01:18.626Z,3.05
2019-02-12T00:02:18.581Z,3.07
2019-02-12T00:03:18.561Z,3.08
2019-02-12T00:04:18.552Z,3.05
2019-02-12T00:05:18.539Z,2.99
2019-02-12T00:06:18.575Z,3.05
2019-02-12T00:07:18.518Z,3.08
2019-02-12T00:08:18.507Z,3.07
2019-02-12T00:09:18.523Z,3.02
2019-02-12T00:10:18.499Z,3.05
2019-02-12T00:11:18.574Z,3.04
2019-02-12T00:12:18.469Z,3.13
2019-02-12T00:13:18.452Z,2.95
2019-02-12T00:14:18.442Z,2.95
2019-02-12T00:15:18.437Z,3.02
2019-02-12T00:16:18.483Z,2.92
2019-02-12T00:17:18.412Z,2.97
2019-02-12T00:18:18.419Z,2.95
2019-02-12T00:19:18.390Z,2.94
2019-02-12T00:20:18.381Z,2.92
2019-02-12T00:21:18.423Z,2.98
2019-02-12T00:22:18.366Z,2.95
2019-02-12T00:23:18.350Z,2.92
2019-02-12T00:24:18.345Z,2.94
2019-02-12T00:25:18.326Z,2.95
2019-02-12T00:26:18.368Z,2.90
2019-02-12T00:27:18.308Z,2.90
2019-02-12T00:28:18.296Z,2.90
2019-02-12T00:29:18.292Z,2.77
2019-02-12T00:30:18.278Z,2.80
2019-02-12T00:31:18.312Z,2.77
2019-02-12T00:32:18.254Z,2.77
2019-02-12T00:33:18.243Z,2.68
2019-02-12T00:34:18.238Z,2.77
2019-02-12T00:35:18.220Z,2.68
2019-02-12T00:36:18.256Z,2.71
2019-02-12T00:37:18.203Z,2.61
2019-02-12T00:38:18.189Z,2.66
2019-02-12T00:39:18.179Z,2.59
2019-02-12T00:40:18.176Z,2.58
2019-02-12T00:41:18.217Z,2.59
2019-02-12T00:42:18.149Z,2.55
2019-02-12T00:43:18.138Z,2.63
2019-02-12T00:44:18.126Z,2.58
2019-02-12T00:45:18.116Z,2.50
2019-02-12T00:46:18.115Z,2.45
2019-02-12T00:47:18.139Z,2.53
2019-02-12T00:48:18.087Z,2.44
2019-02-12T00:49:18.072Z,2.43
2019-02-12T00:50:18.063Z,2.36
2019-02-12T00:51:18.150Z,2.36
2019-02-12T00:52:18.107Z,2.45
2019-02-12T00:53:18.035Z,2.40
2019-02-12T00:54:18.021Z,2.37
2019-02-12T00:55:18.010Z,2.33
2019-02-12T00:56:18.002Z,2.30
2019-02-12T00:57:18.031Z,2.25
2019-02-12T00:58:17.991Z,2.25
2019-02-12T00:59:17.971Z,2.25
2019-02-12T01:00:17.957Z,2.15
2019-02-12T01:01:17.944Z,2.27
2019-02-12T01:02:17.977Z,2.11
2019-02-12T01:03:17.923Z,2.18
2019-02-12T01:04:17.923Z,2.11
2019-02-12T01:05:17.903Z,2.11
2019-02-12T01:06:17.892Z,2.11
2019-02-12T01:07:17.927Z,2.20
2019-02-12T01:08:17.870Z,2.09
2019-02-12T01:09:17.859Z,2.11
2019-02-12T01:10:17.852Z,2.11
2019-02-12T01:11:17.838Z,2.12
2019-02-12T01:12:17.869Z,2.08
2019-02-12T01:13:17.816Z,2.12
2019-02-12T01:14:17.803Z,2.18
2019-02-12T01:15:17.794Z,2.23
2019-02-12T01:16:17.792Z,2.26
2019-02-12T01:17:17.817Z,2.23
2019-02-12T01:18:17.766Z,2.26
2019-02-12T01:19:17.751Z,2.19
2019-02-12T01:20:17.740Z,2.22
2019-02-12T01:21:25.864Z,2.25
2019-02-12T01:22:18.782Z,2.20
2019-02-12T01:23:17.709Z,2.20
2019-02-12T01:24:17.697Z,2.23
2019-02-12T01:25:17.693Z,2.20
2019-02-12T01:26:17.675Z,2.23
2019-02-12T01:27:17.713Z,2.36
2019-02-12T01:28:17.661Z,2.33
2019-02-12T01:29:17.644Z,2.32
2019-02-12T01:30:17.632Z,2.23
2019-02-12T01:31:17.621Z,2.20
2019-02-12T01:32:17.653Z,2.29
2019-02-12T01:33:17.600Z,2.25
2019-02-12T01:34:17.596Z,2.20
2019-02-12T01:35:17.579Z,2.23
2019-02-12T01:36:17.571Z,2.29
2019-02-12T01:37:17.600Z,2.29
2019-02-12T01:38:17.552Z,2.20
2019-02-12T01:39:17.536Z,2.25
2019-02-12T01:40:17.535Z,2.23
2019-02-12T01:41:17.514Z,2.20
2019-02-12T01:42:17.553Z,2.27
2019-02-12T01:43:17.493Z,2.23
2019-02-12T01:44:17.481Z,2.23
2019-02-12T01:45:17.474Z,2.26
2019-02-12T01:46:17.474Z,2.32
2019-02-12T01:47:17.492Z,2.25
2019-02-12T01:48:17.439Z,2.23
2019-02-12T01:49:17.427Z,2.29
2019-02-12T01:50:17.421Z,2.37
2019-02-12T01:51:17.418Z,2.30
2019-02-12T01:52:17.455Z,2.36
2019-02-12T01:53:17.387Z,2.30
2019-02-12T01:54:17.377Z,2.37
2019-02-12T01:55:17.364Z,2.37
2019-02-12T01:56:17.352Z,2.36
2019-02-12T01:57:17.385Z,2.33
2019-02-12T01:58:17.347Z,2.43
2019-02-12T01:59:17.322Z,2.37
2019-02-12T02:00:17.309Z,2.41
2019-02-12T02:01:17.298Z,2.37
2019-02-12T02:02:17.333Z,2.37
2019-02-12T02:03:17.278Z,2.36
2019-02-12T02:04:17.270Z,2.37
2019-02-12T02:05:17.255Z,2.45
2019-02-12T02:06:17.245Z,2.38
2019-02-12T02:07:17.279Z,2.37
2019-02-12T02:08:17.226Z,2.41
2019-02-12T02:09:17.213Z,2.47
2019-02-12T02:10:17.221Z,2.36
2019-02-12T02:11:17.191Z,2.36
2019-02-12T02:12:17.223Z,2.38
2019-02-12T02:13:17.171Z,2.38
2019-02-12T02:14:17.170Z,2.33
2019-02-12T02:15:17.149Z,2.38
2019-02-12T02:16:17.152Z,2.36
2019-02-12T02:17:17.171Z,2.37
2019-02-12T02:18:17.117Z,2.32
2019-02-12T02:19:17.106Z,2.40
2019-02-12T02:20:17.095Z,2.33
2019-02-12T02:21:17.085Z,2.38
2019-02-12T02:22:17.126Z,2.40
2019-02-12T02:23:17.064Z,2.38
2019-02-12T02:24:17.054Z,2.41
2019-02-12T02:25:17.041Z,2.45
2019-02-12T02:26:17.035Z,2.45
2019-02-12T02:27:17.063Z,2.47
2019-02-12T02:28:17.009Z,2.53
2019-02-12T02:29:17.017Z,2.43
2019-02-12T02:30:16.998Z,2.51
2019-02-12T02:31:16.980Z,2.45
2019-02-12T02:32:17.010Z,2.45
2019-02-12T02:33:16.959Z,2.41
2019-02-12T02:34:16.945Z,2.45
2019-02-12T02:35:16.941Z,2.36
2019-02-12T02:36:16.922Z,2.40
2019-02-12T02:37:16.960Z,2.43
2019-02-12T02:38:16.909Z,2.38
2019-02-12T02:39:16.917Z,2.37
2019-02-12T02:40:16.882Z,2.45
2019-02-12T02:41:16.873Z,2.43
2019-02-12T02:42:16.918Z,2.47
2019-02-12T02:43:16.849Z,2.43
2019-02-12T02:44:16.840Z,2.41
2019-02-12T02:45:16.835Z,2.40
2019-02-12T02:46:16.825Z,2.56
2019-02-12T02:47:16.816Z,2.50
2019-02-12T02:48:16.839Z,2.48
2019-02-12T02:49:16.784Z,2.48
2019-02-12T02:50:16.774Z,2.44
2019-02-12T02:51:16.764Z,2.48
2019-02-12T02:52:16.753Z,2.43
2019-02-12T02:53:16.815Z,2.48
2019-02-12T02:54:16.732Z,2.47
2019-02-12T02:55:16.721Z,2.51
2019-02-12T02:56:16.712Z,2.53
2019-02-12T02:57:16.699Z,2.45
2019-02-12T02:58:16.733Z,2.55
2019-02-12T02:59:16.682Z,2.56
2019-02-12T03:00:16.745Z,2.53
2019-02-12T03:01:16.660Z,2.56
2019-02-12T03:02:16.644Z,2.62
2019-02-12T03:03:16.681Z,2.58
2019-02-12T03:04:16.627Z,2.58
2019-02-12T03:05:16.614Z,2.56
2019-02-12T03:06:16.609Z,2.50
2019-02-12T03:07:16.594Z,2.53
2019-02-12T03:08:16.623Z,2.53
2019-02-12T03:09:16.572Z,2.50
2019-02-12T03:10:16.564Z,2.58
2019-02-12T03:11:16.551Z,2.50
2019-02-12T03:12:16.547Z,2.50
2019-02-12T03:13:16.569Z,2.47
2019-02-12T03:14:16.519Z,2.56
2019-02-12T03:15:16.506Z,2.53
2019-02-12T03:16:16.497Z,2.53
2019-02-12T03:17:16.485Z,2.48
2019-02-12T03:18:16.526Z,2.47
2019-02-12T03:19:16.467Z,2.48
2019-02-12T03:20:16.455Z,2.55
2019-02-12T03:21:16.442Z,2.51
2019-02-12T03:22:16.433Z,2.48
2019-02-12T03:23:16.466Z,2.48
2019-02-12T03:24:16.417Z,2.53
2019-02-12T03:25:16.401Z,2.53
2019-02-12T03:26:16.389Z,2.41
2019-02-12T03:27:16.381Z,2.48
2019-02-12T03:28:16.412Z,2.45
2019-02-12T03:29:16.359Z,2.45
2019-02-12T03:30:16.356Z,2.44
2019-02-12T03:31:16.338Z,2.55
2019-02-12T03:32:16.333Z,2.43
2019-02-12T03:33:16.359Z,2.47
2019-02-12T03:34:16.309Z,2.41
2019-02-12T03:35:16.294Z,2.37
2019-02-12T03:36:16.305Z,2.37
2019-02-12T03:37:16.272Z,2.44
2019-02-12T03:38:16.306Z,2.38
2019-02-12T03:39:16.253Z,2.38
2019-02-12T03:40:16.242Z,2.37
2019-02-12T03:41:16.232Z,2.41
2019-02-12T03:42:16.225Z,2.33
2019-02-12T03:43:16.261Z,2.33
2019-02-12T03:44:16.196Z,2.29
2019-02-12T03:45:16.206Z,2.36
2019-02-12T03:46:16.176Z,2.38
2019-02-12T03:47:16.164Z,2.19
2019-02-12T03:48:16.200Z,2.29
2019-02-12T03:49:16.144Z,2.25
2019-02-12T03:50:16.137Z,2.25
2019-02-12T03:51:16.124Z,2.25
2019-02-12T03:52:16.119Z,2.27
2019-02-12T03:53:16.143Z,2.22
2019-02-12T03:54:16.089Z,2.23
2019-02-12T03:55:16.078Z,2.14
2019-02-12T03:56:16.077Z,2.07
2019-02-12T03:57:16.072Z,2.08
2019-02-12T03:58:16.091Z,2.02
2019-02-12T03:59:16.045Z,2.05
2019-02-12T04:00:16.052Z,2.08
2019-02-12T04:01:16.015Z,2.08
2019-02-12T04:02:16.023Z,2.02
2019-02-12T04:03:16.047Z,2.07
2019-02-12T04:04:15.989Z,1.98
2019-02-12T04:05:15.974Z,2.01
2019-02-12T04:06:15.962Z,1.98
2019-02-12T04:07:15.950Z,2.05
2019-02-12T04:08:15.939Z,2.01
2019-02-12T04:09:15.972Z,2.04
2019-02-12T04:10:15.917Z,2.00
2019-02-12T04:11:15.935Z,2.02
2019-02-12T04:12:15.895Z,1.98
2019-02-12T04:13:15.886Z,2.02
2019-02-12T04:14:15.917Z,1.95
2019-02-12T04:15:15.863Z,2.01
2019-02-12T04:16:15.856Z,2.02
2019-02-12T04:17:15.860Z,1.93
2019-02-12T04:18:15.830Z,1.92
2019-02-12T04:19:15.875Z,1.92
2019-02-12T04:20:15.811Z,1.93
2019-02-12T04:21:15.799Z,2.01
2019-02-12T04:22:22.276Z,1.88
2019-02-12T04:23:16.781Z,1.88
2019-02-12T04:24:15.810Z,1.90
2019-02-12T04:25:15.756Z,1.92
2019-02-12T04:26:15.747Z,1.86
2019-02-12T04:27:15.737Z,1.92
2019-02-12T04:28:15.726Z,1.82
2019-02-12T04:29:15.764Z,1.83
2019-02-12T04:30:15.714Z,1.83
2019-02-12T04:31:15.695Z,1.88
2019-02-12T04:32:15.682Z,1.88
2019-02-12T04:33:15.673Z,1.89
2019-02-12T04:34:15.703Z,1.92
2019-02-12T04:35:15.658Z,1.88
2019-02-12T04:36:15.644Z,1.90
2019-02-12T04:37:15.629Z,1.90
2019-02-12T04:38:15.619Z,1.90
2019-02-12T04:39:15.651Z,1.90
2019-02-12T04:40:15.597Z,1.83
2019-02-12T04:41:15.583Z,1.77
2019-02-12T04:42:15.572Z,1.85
2019-02-12T04:43:15.582Z,1.82
2019-02-12T04:44:15.596Z,1.74
2019-02-12T04:45:15.552Z,1.81
2019-02-12T04:46:15.553Z,1.85
2019-02-12T04:47:15.518Z,1.79
2019-02-12T04:48:15.514Z,1.72
2019-02-12T04:49:15.550Z,1.70
2019-02-12T04:50:15.487Z,1.65
2019-02-12T04:51:15.479Z,1.68
2019-02-12T04:52:15.469Z,1.68
2019-02-12T04:53:15.455Z,1.72
2019-02-12T04:54:15.488Z,1.72
2019-02-12T04:55:15.452Z,1.61
2019-02-12T04:56:15.428Z,1.64
2019-02-12T04:57:15.412Z,1.61
2019-02-12T04:58:15.407Z,1.70
2019-02-12T04:59:15.449Z,1.63
2019-02-12T05:00:15.383Z,1.64
2019-02-12T05:01:15.369Z,1.53
2019-02-12T05:02:15.374Z,1.50
2019-02-12T05:03:15.352Z,1.56
2019-02-12T05:04:15.336Z,1.54
2019-02-12T05:05:15.370Z,1.54
2019-02-12T05:06:15.315Z,1.47
2019-02-12T05:07:15.304Z,1.46
2019-02-12T05:08:15.308Z,1.46
2019-02-12T05:09:15.289Z,1.49
2019-02-12T05:10:15.315Z,1.46
2019-02-12T05:11:15.259Z,1.38
2019-02-12T05:12:15.255Z,1.39
2019-02-12T05:13:15.243Z,1.38
2019-02-12T05:14:15.239Z,1.39
2019-02-12T05:15:15.271Z,1.38
2019-02-12T05:16:15.208Z,1.35
2019-02-12T05:17:15.197Z,1.29
2019-02-12T05:18:15.189Z,1.31
2019-02-12T05:19:15.180Z,1.28
2019-02-12T05:20:15.216Z,1.31
2019-02-12T05:21:15.161Z,1.26
2019-02-12T05:22:15.141Z,1.14
2019-02-12T05:23:15.132Z,1.24
2019-02-12T05:24:15.121Z,1.31
2019-02-12T05:25:15.155Z,1.21
2019-02-12T05:26:15.104Z,1.31
2019-02-12T05:27:15.088Z,1.29
2019-02-12T05:28:15.094Z,1.25
2019-02-12T05:29:15.064Z,1.28
2019-02-12T05:30:15.106Z,1.16
2019-02-12T05:31:15.047Z,1.34
2019-02-12T05:32:15.037Z,1.24
2019-02-12T05:33:15.022Z,1.31
2019-02-12T05:34:15.027Z,1.20
2019-02-12T05:35:15.046Z,1.26
2019-02-12T05:36:14.990Z,1.29
2019-02-12T05:37:14.979Z,1.31
2019-02-12T05:38:14.967Z,1.31
2019-02-12T05:39:14.969Z,1.28
2019-02-12T05:40:14.995Z,1.28
2019-02-12T05:41:14.934Z,1.34
2019-02-12T05:42:14.942Z,1.17
2019-02-12T05:43:14.918Z,1.17
2019-02-12T05:44:14.907Z,1.34
2019-02-12T05:45:14.940Z,1.28
2019-02-12T05:46:14.890Z,1.29
2019-02-12T05:47:14.872Z,1.20
2019-02-12T05:48:14.863Z,1.18
2019-02-12T05:49:14.850Z,1.24
2019-02-12T05:50:14.883Z,1.21
2019-02-12T05:51:14.829Z,1.29
2019-02-12T05:52:14.822Z,1.25
2019-02-12T05:53:14.809Z,1.24
2019-02-12T05:54:14.800Z,1.25
2019-02-12T05:55:14.831Z,1.20
2019-02-12T05:56:14.781Z,1.24
2019-02-12T05:57:14.763Z,1.21
2019-02-12T05:58:14.759Z,1.18
2019-02-12T05:59:14.743Z,1.21
2019-02-12T06:00:14.785Z,1.25
2019-02-12T06:01:14.720Z,1.16
2019-02-12T06:02:14.745Z,1.24
2019-02-12T06:03:14.716Z,1.18
2019-02-12T06:04:14.693Z,1.11
2019-02-12T06:05:14.719Z,1.18
2019-02-12T06:06:16.949Z,1.20
2019-02-12T06:07:14.656Z,1.28
2019-02-12T06:08:14.646Z,1.26
2019-02-12T06:09:14.631Z,1.24
2019-02-12T06:10:14.711Z,1.26
2019-02-12T06:11:14.610Z,1.20
2019-02-12T06:12:14.602Z,1.18
2019-02-12T06:13:14.597Z,1.16
2019-02-12T06:14:14.578Z,1.28
2019-02-12T06:15:14.574Z,1.18
2019-02-12T06:16:15.579Z,1.20
2019-02-12T06:17:14.544Z,1.25
2019-02-12T06:18:14.539Z,1.32
2019-02-12T06:19:14.549Z,1.26
2019-02-12T06:20:14.619Z,1.28
2019-02-12T06:21:14.547Z,1.29
2019-02-12T06:22:14.489Z,1.26
2019-02-12T06:23:14.479Z,1.26
2019-02-12T06:24:14.474Z,1.31
2019-02-12T06:25:14.458Z,1.28
2019-02-12T06:26:14.509Z,1.29
2019-02-12T06:27:14.435Z,1.24
2019-02-12T06:28:14.427Z,1.34
2019-02-12T06:29:14.420Z,1.17
2019-02-12T06:30:14.404Z,1.26
2019-02-12T06:31:14.434Z,1.29
2019-02-12T06:32:14.385Z,1.31
2019-02-12T06:33:14.369Z,1.36
2019-02-12T06:34:14.357Z,1.17
2019-02-12T06:35:14.348Z,1.31
2019-02-12T06:36:14.380Z,1.20
2019-02-12T06:37:14.327Z,1.29
2019-02-12T06:38:14.345Z,1.25
2019-02-12T06:39:14.303Z,1.36
2019-02-12T06:40:14.290Z,1.26
2019-02-12T06:41:14.324Z,1.18
2019-02-12T06:42:14.269Z,1.39
2019-02-12T06:43:14.258Z,1.20
2019-02-12T06:44:14.250Z,1.29
2019-02-12T06:45:14.237Z,1.26
2019-02-12T06:46:14.332Z,1.31
2019-02-12T06:47:14.215Z,1.24
2019-02-12T06:48:14.202Z,1.18
2019-02-12T06:49:14.194Z,1.20
2019-02-12T06:50:14.188Z,1.31
2019-02-12T06:51:14.212Z,1.24
2019-02-12T06:52:14.158Z,1.26
2019-02-12T06:53:14.146Z,1.34
2019-02-12T06:54:14.137Z,1.28
2019-02-12T06:55:14.125Z,1.25
2019-02-12T06:56:14.161Z,1.32
2019-02-12T06:57:14.105Z,1.24
2019-02-12T06:58:14.094Z,1.28
2019-02-12T06:59:14.083Z,1.24
2019-02-12T07:00:14.074Z,1.31
2019-02-12T07:01:14.115Z,1.26
2019-02-12T07:02:14.059Z,1.29
2019-02-12T07:03:14.039Z,1.34
2019-02-12T07:04:14.027Z,1.34
2019-02-12T07:05:14.019Z,1.28
2019-02-12T07:06:14.054Z,1.38
2019-02-12T07:07:13.993Z,1.32
2019-02-12T07:08:13.986Z,1.29
2019-02-12T07:09:13.974Z,1.31
2019-02-12T07:10:13.970Z,1.28
2019-02-12T07:11:13.997Z,1.35
2019-02-12T07:12:13.943Z,1.32
2019-02-12T07:13:13.933Z,1.32
2019-02-12T07:14:13.922Z,1.36
2019-02-12T07:15:13.909Z,1.31
2019-02-12T07:16:13.961Z,1.31
2019-02-12T07:17:13.886Z,1.29
2019-02-12T07:18:13.891Z,1.34
2019-02-12T07:19:13.870Z,1.31
2019-02-12T07:20:13.854Z,1.35
2019-02-12T07:21:13.887Z,1.36
2019-02-12T07:22:13.855Z,1.39
2019-02-12T07:23:21.169Z,1.39
2019-02-12T07:24:14.809Z,1.42
2019-02-12T07:25:13.803Z,1.38
2019-02-12T07:26:13.831Z,1.43
2019-02-12T07:27:13.781Z,1.46
2019-02-12T07:28:13.765Z,1.47
2019-02-12T07:29:13.758Z,1.46
2019-02-12T07:30:13.755Z,1.49
2019-02-12T07:31:13.781Z,1.56
2019-02-12T07:32:13.728Z,1.52
2019-02-12T07:33:13.731Z,1.60
2019-02-12T07:34:13.719Z,1.57
2019-02-12T07:35:13.698Z,1.52
2019-02-12T07:36:13.727Z,1.57
2019-02-12T07:37:13.675Z,1.65
2019-02-12T07:38:13.660Z,1.63
2019-02-12T07:39:13.667Z,1.63
2019-02-12T07:40:13.636Z,1.64
2019-02-12T07:41:19.889Z,1.68
2019-02-12T07:42:14.630Z,1.75
2019-02-12T07:43:13.608Z,1.74
2019-02-12T07:44:13.603Z,1.75
2019-02-12T07:45:13.585Z,1.75
2019-02-12T07:46:13.573Z,1.81
2019-02-12T07:47:13.607Z,1.85
2019-02-12T07:48:13.549Z,1.81
2019-02-12T07:49:13.543Z,1.90
2019-02-12T07:50:13.533Z,1.90
2019-02-12T07:51:13.530Z,1.85
2019-02-12T07:52:13.556Z,1.90
2019-02-12T07:53:13.503Z,1.93
2019-02-12T07:54:13.501Z,1.92
2019-02-12T07:55:13.475Z,2.07
2019-02-12T07:56:13.466Z,2.01
2019-02-12T07:57:13.498Z,2.02
2019-02-12T07:58:13.442Z,2.04
2019-02-12T07:59:13.435Z,2.02
2019-02-12T08:00:13.420Z,2.08
2019-02-12T08:01:13.422Z,2.09
2019-02-12T08:02:13.516Z,2.18
2019-02-12T08:03:13.389Z,2.19
2019-02-12T08:04:13.377Z,2.20
2019-02-12T08:05:13.377Z,2.25
2019-02-12T08:06:13.370Z,2.36
2019-02-12T08:07:13.394Z,2.29
2019-02-12T08:08:13.337Z,2.38
2019-02-12T08:09:13.330Z,2.33
2019-02-12T08:10:15.291Z,2.44
2019-02-12T08:11:13.306Z,2.53
2019-02-12T08:12:13.338Z,2.37
2019-02-12T08:13:13.283Z,2.48
2019-02-12T08:14:13.269Z,2.51
2019-02-12T08:15:13.263Z,2.55
2019-02-12T08:16:13.251Z,2.61
2019-02-12T08:17:13.284Z,2.62
2019-02-12T08:18:13.237Z,2.58
2019-02-12T08:19:13.244Z,2.58
2019-02-12T08:20:13.204Z,2.62
2019-02-12T08:21:13.193Z,2.66
2019-02-12T08:22:14.215Z,2.55
2019-02-12T08:23:13.174Z,2.65
2019-02-12T08:24:13.165Z,2.68
2019-02-12T08:25:13.188Z,2.68
2019-02-12T08:26:13.143Z,2.73
2019-02-12T08:27:13.183Z,2.74
2019-02-12T08:28:13.124Z,2.71
2019-02-12T08:29:13.117Z,2.71
2019-02-12T08:30:13.097Z,2.76
2019-02-12T08:31:13.091Z,2.81
2019-02-12T08:32:13.141Z,2.81
2019-02-12T08:33:13.068Z,2.80
2019-02-12T08:34:13.053Z,2.94
2019-02-12T08:35:13.045Z,2.95
2019-02-12T08:36:13.036Z,2.98
2019-02-12T08:37:13.027Z,2.99
2019-02-12T08:38:13.060Z,2.92
2019-02-12T08:39:13.006Z,3.02
2019-02-12T08:40:12.992Z,3.01
2019-02-12T08:41:12.982Z,3.01
2019-02-12T08:42:12.981Z,3.07
2019-02-12T08:43:13.005Z,3.04
2019-02-12T08:44:12.947Z,3.15
2019-02-12T08:45:12.957Z,3.22
2019-02-12T08:46:12.926Z,3.16
2019-02-12T08:47:12.919Z,3.16
2019-02-12T08:48:12.954Z,3.17
2019-02-12T08:49:12.900Z,3.26
2019-02-12T08:50:12.887Z,3.31
2019-02-12T08:51:12.874Z,3.33
2019-02-12T08:52:12.864Z,3.33
2019-02-12T08:53:12.894Z,3.30
2019-02-12T08:54:12.854Z,3.28
2019-02-12T08:55:12.831Z,3.34
2019-02-12T08:56:12.822Z,3.33
2019-02-12T08:57:12.810Z,3.30
2019-02-12T08:58:12.850Z,3.30
2019-02-12T08:59:12.792Z,3.26
2019-02-12T09:00:12.781Z,3.28
2019-02-12T09:01:12.771Z,3.34
2019-02-12T09:02:12.755Z,3.33
2019-02-12T09:03:12.796Z,3.46
2019-02-12T09:04:12.736Z,3.49
2019-02-12T09:05:12.726Z,3.53
2019-02-12T09:06:12.726Z,3.46
2019-02-12T09:07:12.707Z,3.54
2019-02-12T09:08:12.783Z,3.68
2019-02-12T09:09:12.685Z,3.72
2019-02-12T09:10:12.671Z,3.64
2019-02-12T09:11:12.672Z,3.78
2019-02-12T09:12:12.663Z,3.75
2019-02-12T09:13:12.685Z,3.78
2019-02-12T09:14:12.632Z,3.80
2019-02-12T09:15:12.621Z,3.78
2019-02-12T09:16:12.608Z,3.75
2019-02-12T09:17:12.608Z,3.81
2019-02-12T09:18:12.634Z,3.80
2019-02-12T09:19:12.578Z,3.78
2019-02-12T09:20:12.590Z,3.77
2019-02-12T09:21:12.554Z,3.71
2019-02-12T09:22:12.551Z,3.81
2019-02-12T09:23:12.584Z,3.75
2019-02-12T09:24:12.524Z,3.77
2019-02-12T09:25:12.518Z,3.75
2019-02-12T09:26:12.509Z,3.81
2019-02-12T09:27:12.492Z,3.82
2019-02-12T09:28:12.559Z,3.88
2019-02-12T09:29:12.484Z,3.95
2019-02-12T09:30:12.466Z,3.98
2019-02-12T09:31:12.453Z,4.02
2019-02-12T09:32:12.438Z,4.06
2019-02-12T09:33:12.472Z,4.17
2019-02-12T09:34:12.421Z,4.28
2019-02-12T09:35:12.408Z,4.36
2019-02-12T09:36:12.400Z,4.31
2019-02-12T09:37:12.393Z,4.39
2019-02-12T09:38:12.418Z,4.47
2019-02-12T09:39:12.363Z,4.49
2019-02-12T09:40:18.781Z,4.51
2019-02-12T09:41:13.344Z,4.56
2019-02-12T09:42:12.331Z,4.65
2019-02-12T09:43:12.376Z,4.56
2019-02-12T09:44:12.309Z,4.51
2019-02-12T09:45:12.299Z,4.53
2019-02-12T09:46:12.298Z,4.56
2019-02-12T09:47:12.278Z,4.51
2019-02-12T09:48:12.317Z,4.44
2019-02-12T09:49:12.256Z,4.43
2019-02-12T09:50:12.247Z,4.47
2019-02-12T09:51:12.237Z,4.39
2019-02-12T09:52:12.237Z,4.39
2019-02-12T09:53:12.261Z,4.36
2019-02-12T09:54:12.202Z,4.32
2019-02-12T09:55:12.201Z,4.35
2019-02-12T09:56:12.182Z,4.35
2019-02-12T09:57:12.173Z,4.38
2019-02-12T09:58:12.209Z,4.32
2019-02-12T09:59:12.150Z,4.47
2019-02-12T10:00:12.137Z,4.44
2019-02-12T10:01:12.133Z,4.44
2019-02-12T10:02:12.114Z,4.43
2019-02-12T10:03:12.154Z,4.36
2019-02-12T10:04:12.106Z,4.35
2019-02-12T10:05:12.083Z,4.43
2019-02-12T10:06:21.275Z,4.42
2019-02-12T10:07:13.067Z,4.44
2019-02-12T10:08:12.097Z,4.32
2019-02-12T10:09:12.047Z,4.47
2019-02-12T10:10:12.030Z,4.44
2019-02-12T10:11:12.020Z,4.44
2019-02-12T10:12:12.008Z,4.42
2019-02-12T10:13:12.042Z,4.46
2019-02-12T10:14:11.988Z,4.42
2019-02-12T10:15:11.984Z,4.47
2019-02-12T10:16:11.966Z,4.47
2019-02-12T10:17:11.957Z,4.53
2019-02-12T10:18:11.994Z,4.50
2019-02-12T10:19:11.932Z,4.64
2019-02-12T10:20:11.923Z,4.61
2019-02-12T10:21:11.928Z,4.72
2019-02-12T10:22:11.917Z,4.84
2019-02-12T10:23:11.951Z,4.80
2019-02-12T10:24:19.264Z,4.86
2019-02-12T10:25:12.867Z,4.86
2019-02-12T10:26:11.856Z,4.96
2019-02-12T10:27:11.851Z,4.96
2019-02-12T10:28:11.840Z,5.17
2019-02-12T10:29:11.891Z,5.19
2019-02-12T10:30:11.818Z,5.24
2019-02-12T10:31:11.806Z,5.23
2019-02-12T10:32:11.796Z,5.22
2019-02-12T10:33:11.801Z,5.23
2019-02-12T10:34:11.909Z,5.40
2019-02-12T10:35:11.759Z,5.27
2019-02-12T10:36:11.749Z,5.30
2019-02-12T10:37:11.746Z,5.22
2019-02-12T10:39:11.774Z,5.17
2019-02-12T10:40:11.708Z,5.17
2019-02-12T10:41:11.706Z,5.23
2019-02-12T10:42:11.683Z,5.20
2019-02-12T10:43:11.674Z,5.20
2019-02-12T10:44:11.703Z,5.24
2019-02-12T10:45:11.659Z,5.30
2019-02-12T10:46:11.648Z,5.30
2019-02-12T10:47:11.643Z,5.30
2019-02-12T10:48:11.621Z,5.32
2019-02-12T10:49:11.659Z,5.32
2019-02-12T10:50:11.606Z,5.32
2019-02-12T10:51:11.589Z,5.27
2019-02-12T10:52:11.579Z,5.29
2019-02-12T10:53:11.562Z,5.29
2019-02-12T10:54:13.505Z,5.29
2019-02-12T10:55:11.543Z,5.38
2019-02-12T10:56:11.545Z,5.44
2019-02-12T10:57:11.517Z,5.49
2019-02-12T10:58:11.517Z,5.49
2019-02-12T10:59:11.552Z,5.70
2019-02-12T11:00:11.499Z,6.05
2019-02-12T11:01:11.487Z,6.27
2019-02-12T11:02:11.486Z,6.28
2019-02-12T11:03:11.451Z,6.63
2019-02-12T11:04:11.509Z,6.83
2019-02-12T11:05:11.433Z,6.68
2019-02-12T11:06:11.421Z,6.76
2019-02-12T11:07:11.440Z,6.75
2019-02-12T11:08:11.395Z,6.72
2019-02-12T11:09:11.450Z,6.75
2019-02-12T11:10:11.389Z,6.93
2019-02-12T11:11:11.365Z,7.15
2019-02-12T11:12:11.358Z,7.15
2019-02-12T11:13:11.366Z,7.16
2019-02-12T11:14:11.375Z,7.09
2019-02-12T11:15:11.320Z,6.93
2019-02-12T11:16:11.310Z,7.07
2019-02-12T11:17:11.298Z,7.21
2019-02-12T11:18:11.327Z,7.26
2019-02-12T11:19:11.321Z,7.47
2019-02-12T11:20:11.269Z,7.54
2019-02-12T11:21:12.071Z,7.58
2019-02-12T11:22:11.245Z,7.67
2019-02-12T11:23:11.240Z,7.70
2019-02-12T11:24:11.280Z,7.82
2019-02-12T11:25:11.227Z,7.89
2019-02-12T11:26:11.203Z,7.77
2019-02-12T11:27:11.204Z,8.27
2019-02-12T11:28:11.181Z,8.17
2019-02-12T11:29:11.222Z,8.34
2019-02-12T11:30:11.172Z,8.61
2019-02-12T11:31:11.160Z,9.13
2019-02-12T11:32:11.135Z,9.56
2019-02-12T11:33:11.139Z,10.09
2019-02-12T11:34:11.156Z,10.38
2019-02-12T11:35:11.106Z,10.31
2019-02-12T11:36:11.106Z,10.44
2019-02-12T11:37:11.083Z,10.29
2019-02-12T11:38:11.069Z,10.14
2019-02-12T11:39:11.113Z,10.20
2019-02-12T11:40:11.049Z,10.18
2019-02-12T11:41:11.045Z,9.60
2019-02-12T11:42:11.039Z,9.35
2019-02-12T11:43:11.019Z,9.15
2019-02-12T11:44:11.154Z,8.65
2019-02-12T11:45:10.994Z,8.39
2019-02-12T11:46:10.985Z,8.20
2019-02-12T11:47:10.982Z,8.13
2019-02-12T11:48:10.985Z,8.13
2019-02-12T11:49:10.995Z,8.10
2019-02-12T11:50:10.947Z,8.09
2019-02-12T11:51:10.990Z,8.09
2019-02-12T11:52:10.934Z,7.95
2019-02-12T11:53:10.990Z,7.99
2019-02-12T11:54:10.968Z,7.89
2019-02-12T11:55:10.925Z,7.77
2019-02-12T11:56:10.891Z,7.73
2019-02-12T11:57:10.880Z,7.73
2019-02-12T11:58:10.868Z,7.69
2019-02-12T11:59:10.860Z,7.86
2019-02-12T12:00:10.875Z,7.81
2019-02-12T12:01:10.823Z,7.96
2019-02-12T12:02:10.818Z,7.92
2019-02-12T12:03:10.798Z,7.94
2019-02-12T12:04:10.793Z,7.94
2019-02-12T12:05:10.823Z,7.94
2019-02-12T12:06:10.767Z,7.94
2019-02-12T12:07:10.760Z,7.95
2019-02-12T12:08:10.744Z,8.07
2019-02-12T12:09:10.732Z,8.07
2019-02-12T12:10:10.943Z,8.14
2019-02-12T12:11:10.731Z,8.13
2019-02-12T12:12:10.704Z,8.29
2019-02-12T12:13:10.690Z,8.34
2019-02-12T12:14:10.701Z,8.40
2019-02-12T12:15:11.134Z,8.49
2019-02-12T12:16:11.240Z,8.54
2019-02-12T12:17:10.645Z,8.60
2019-02-12T12:18:10.639Z,8.63
2019-02-12T12:19:10.638Z,8.80
2019-02-12T12:20:10.657Z,8.88
2019-02-12T12:21:10.608Z,8.82
2019-02-12T12:22:10.605Z,8.82
2019-02-12T12:23:10.581Z,8.80
2019-02-12T12:24:10.570Z,8.86
2019-02-12T12:25:10.603Z,8.88
2019-02-12T12:26:10.563Z,8.82
2019-02-12T12:27:10.538Z,8.82
2019-02-12T12:28:10.532Z,8.65
2019-02-12T12:29:10.517Z,8.68
2019-02-12T12:30:10.552Z,8.64
2019-02-12T12:31:10.495Z,8.73
2019-02-12T12:32:10.493Z,8.67
2019-02-12T12:33:10.473Z,8.70
2019-02-12T12:34:10.462Z,8.65
2019-02-12T12:35:10.516Z,8.68
2019-02-12T12:36:10.442Z,8.68
2019-02-12T12:37:10.431Z,8.70
2019-02-12T12:38:10.436Z,8.65
2019-02-12T12:39:10.409Z,8.68
2019-02-12T12:40:10.400Z,8.71
2019-02-12T12:41:10.432Z,8.47
2019-02-12T12:42:10.378Z,8.45
2019-02-12T12:43:10.367Z,8.42
2019-02-12T12:44:10.361Z,8.50
2019-02-12T12:45:10.347Z,8.49
2019-02-12T12:46:10.382Z,8.47
2019-02-12T12:47:10.328Z,8.46
2019-02-12T12:48:10.366Z,8.55
2019-02-12T12:49:10.302Z,8.64
2019-02-12T12:50:10.291Z,8.67
2019-02-12T12:51:10.334Z,8.61
2019-02-12T12:52:10.270Z,8.57
2019-02-12T12:53:10.260Z,8.52
2019-02-12T12:54:10.259Z,8.54
2019-02-12T12:55:10.249Z,8.55
2019-02-12T12:56:10.271Z,8.52
2019-02-12T12:57:10.239Z,8.47
2019-02-12T12:58:10.252Z,8.49
2019-02-12T12:59:10.248Z,8.43
2019-02-12T13:00:10.185Z,8.39
2019-02-12T13:01:10.217Z,8.40
2019-02-12T13:02:10.200Z,8.39
2019-02-12T13:03:10.173Z,8.45
2019-02-12T13:04:10.141Z,8.47
2019-02-12T13:05:11.069Z,8.40
2019-02-12T13:06:11.621Z,8.36
2019-02-12T13:07:10.114Z,8.32
2019-02-12T13:08:10.099Z,8.32
2019-02-12T13:09:10.094Z,8.29
2019-02-12T13:10:10.078Z,8.27
2019-02-12T13:11:10.118Z,8.20
2019-02-12T13:12:10.057Z,8.17
2019-02-12T13:13:10.046Z,8.13
2019-02-12T13:14:10.040Z,8.18
2019-02-12T13:15:10.025Z,8.12
2019-02-12T13:16:10.056Z,8.04
2019-02-12T13:17:11.522Z,8.10
2019-02-12T13:18:09.994Z,8.02
2019-02-12T13:19:09.985Z,8.02